sensor_id;sensor_type;location;lat;lon;timestamp;pressure;altitude;pressure_sealevel;temperature;humidity
84190;BME280;74321;53.406;8.146;2024-02-21T00:04:19;101937.34;;;8.39;100.00
84190;BME280;74321;53.406;8.146;2024-02-21T00:09:21;101948.44;;;8.41;100.00
84190;BME280;74321;53.406;8.146;2024-02-21T00:14:28;101962.19;;;8.46;100.00
84190;BME280;74321;53.406;8.146;2024-02-21T00:19:31;101941.59;;;8.40;100.00
84190;BME280;74321;53.406;8.146;2024-02-21T00:24:33;101936.38;;;8.35;100.00
84190;BME280;74321;53.406;8.146;2024-02-21T00:29:35;101937.31;;;8.37;100.00
84190;BME280;74321;53.406;8.146;2024-02-21T00:34:41;101945.16;;;8.47;100.00
84190;BME280;74321;53.406;8.146;2024-02-21T00:39:43;101923.59;;;8.35;100.00
84190;BME280;74321;53.406;8.146;2024-02-21T00:44:45;101920.31;;;8.39;100.00
84190;BME280;74321;53.406;8.146;2024-02-21T00:49:47;101911.81;;;8.40;100.00
84190;BME280;74321;53.406;8.146;2024-02-21T00:54:49;101897.22;;;8.35;100.00
84190;BME280;74321;53.406;8.146;2024-02-21T00:59:55;101910.06;;;8.38;100.00
84190;BME280;74321;53.406;8.146;2024-02-21T01:04:57;101912.75;;;8.44;100.00
84190;BME280;74321;53.406;8.146;2024-02-21T01:09:59;101837.34;;;8.24;100.00
84190;BME280;74321;53.406;8.146;2024-02-21T01:15:02;101826.63;;;8.37;100.00
84190;BME280;74321;53.406;8.146;2024-02-21T01:20:07;101802.59;;;8.30;100.00
84190;BME280;74321;53.406;8.146;2024-02-21T01:25:12;101823.88;;;8.29;100.00
84190;BME280;74321;53.406;8.146;2024-02-21T01:30:17;101790.88;;;8.01;100.00
84190;BME280;74321;53.406;8.146;2024-02-21T01:35:22;101797.19;;;8.16;100.00
84190;BME280;74321;53.406;8.146;2024-02-21T01:40:24;101801.63;;;8.25;100.00
84190;BME280;74321;53.406;8.146;2024-02-21T01:45:26;101791.25;;;8.17;100.00
84190;BME280;74321;53.406;8.146;2024-02-21T01:50:28;101806.72;;;8.24;100.00
84190;BME280;74321;53.406;8.146;2024-02-21T01:55:34;101815.34;;;8.29;100.00
84190;BME280;74321;53.406;8.146;2024-02-21T02:00:37;101819.78;;;8.36;100.00
84190;BME280;74321;53.406;8.146;2024-02-21T02:05:40;101813.72;;;8.34;100.00
84190;BME280;74321;53.406;8.146;2024-02-21T02:10:45;101806.88;;;8.31;100.00
84190;BME280;74321;53.406;8.146;2024-02-21T02:15:49;101802.78;;;8.36;100.00
84190;BME280;74321;53.406;8.146;2024-02-21T02:20:51;101793.06;;;8.22;100.00
84190;BME280;74321;53.406;8.146;2024-02-21T02:25:53;101789.63;;;8.20;100.00
84190;BME280;74321;53.406;8.146;2024-02-21T02:30:56;101784.59;;;8.24;100.00
84190;BME280;74321;53.406;8.146;2024-02-21T02:35:58;101788.66;;;8.16;100.00
84190;BME280;74321;53.406;8.146;2024-02-21T02:41:00;101773.28;;;8.11;100.00
84190;BME280;74321;53.406;8.146;2024-02-21T02:46:05;101775.75;;;8.10;100.00
84190;BME280;74321;53.406;8.146;2024-02-21T02:51:07;101754.09;;;7.91;100.00
84190;BME280;74321;53.406;8.146;2024-02-21T02:56:14;101757.41;;;7.87;100.00
84190;BME280;74321;53.406;8.146;2024-02-21T03:01:17;101780.38;;;7.87;100.00
84190;BME280;74321;53.406;8.146;2024-02-21T03:06:19;101769.31;;;7.86;100.00
84190;BME280;74321;53.406;8.146;2024-02-21T03:11:24;101771.63;;;7.77;100.00
84190;BME280;74321;53.406;8.146;2024-02-21T03:16:31;101774.09;;;7.73;100.00
84190;BME280;74321;53.406;8.146;2024-02-21T03:21:33;101764.75;;;7.73;100.00
84190;BME280;74321;53.406;8.146;2024-02-21T03:26:35;101744.94;;;7.62;100.00
84190;BME280;74321;53.406;8.146;2024-02-21T03:31:37;101739.03;;;7.64;100.00
84190;BME280;74321;53.406;8.146;2024-02-21T03:36:39;101761.34;;;7.73;100.00
84190;BME280;74321;53.406;8.146;2024-02-21T03:41:41;101756.22;;;7.71;100.00
84190;BME280;74321;53.406;8.146;2024-02-21T03:46:44;101772.59;;;7.82;100.00
84190;BME280;74321;53.406;8.146;2024-02-21T03:51:46;101764.91;;;7.79;100.00
84190;BME280;74321;53.406;8.146;2024-02-21T03:56:51;101753.13;;;7.86;100.00
84190;BME280;74321;53.406;8.146;2024-02-21T04:01:53;101754.53;;;7.73;100.00
84190;BME280;74321;53.406;8.146;2024-02-21T04:06:55;101757.28;;;7.81;100.00
84190;BME280;74321;53.406;8.146;2024-02-21T04:11:58;101741.72;;;7.70;100.00
84190;BME280;74321;53.406;8.146;2024-02-21T04:17:00;101745.59;;;7.92;100.00
84190;BME280;74321;53.406;8.146;2024-02-21T04:22:02;101731.59;;;7.73;100.00
84190;BME280;74321;53.406;8.146;2024-02-21T04:27:04;101754.78;;;7.84;100.00
84190;BME280;74321;53.406;8.146;2024-02-21T04:32:06;101753.06;;;7.83;100.00
84190;BME280;74321;53.406;8.146;2024-02-21T04:37:08;101747.31;;;7.93;100.00
84190;BME280;74321;53.406;8.146;2024-02-21T04:42:10;101742.22;;;7.93;100.00
84190;BME280;74321;53.406;8.146;2024-02-21T04:47:12;101758.50;;;7.98;100.00
84190;BME280;74321;53.406;8.146;2024-02-21T04:52:16;101756.94;;;8.05;100.00
84190;BME280;74321;53.406;8.146;2024-02-21T04:57:18;101736.34;;;7.96;100.00
84190;BME280;74321;53.406;8.146;2024-02-21T05:02:20;101755.13;;;7.99;100.00
84190;BME280;74321;53.406;8.146;2024-02-21T05:07:24;101741.38;;;7.94;100.00
84190;BME280;74321;53.406;8.146;2024-02-21T05:12:28;101737.31;;;8.02;100.00
84190;BME280;74321;53.406;8.146;2024-02-21T05:17:35;101738.31;;;8.09;100.00
84190;BME280;74321;53.406;8.146;2024-02-21T05:22:37;101716.78;;;7.96;100.00
84190;BME280;74321;53.406;8.146;2024-02-21T05:27:45;101707.34;;;7.94;100.00
84190;BME280;74321;53.406;8.146;2024-02-21T05:32:47;101713.94;;;7.84;100.00
84190;BME280;74321;53.406;8.146;2024-02-21T05:37:49;101729.53;;;7.96;100.00
84190;BME280;74321;53.406;8.146;2024-02-21T05:42:56;101723.53;;;7.94;100.00
84190;BME280;74321;53.406;8.146;2024-02-21T05:48:02;101719.25;;;7.93;100.00
84190;BME280;74321;53.406;8.146;2024-02-21T05:53:04;101698.81;;;7.92;100.00
84190;BME280;74321;53.406;8.146;2024-02-21T05:58:06;101695.25;;;7.85;100.00
84190;BME280;74321;53.406;8.146;2024-02-21T06:03:08;101709.88;;;7.92;100.00
84190;BME280;74321;53.406;8.146;2024-02-21T06:08:11;101710.69;;;7.89;100.00
84190;BME280;74321;53.406;8.146;2024-02-21T06:13:13;101693.69;;;7.90;100.00
84190;BME280;74321;53.406;8.146;2024-02-21T06:18:17;101704.78;;;7.92;100.00
84190;BME280;74321;53.406;8.146;2024-02-21T06:23:20;101719.25;;;7.93;100.00
84190;BME280;74321;53.406;8.146;2024-02-21T06:28:22;101696.06;;;7.82;100.00
84190;BME280;74321;53.406;8.146;2024-02-21T06:33:23;101718.41;;;7.94;100.00
84190;BME280;74321;53.406;8.146;2024-02-21T06:38:27;101720.16;;;7.95;100.00
84190;BME280;74321;53.406;8.146;2024-02-21T06:43:29;101713.25;;;7.91;100.00
84190;BME280;74321;53.406;8.146;2024-02-21T06:48:31;101667.75;;;7.70;100.00
84190;BME280;74321;53.406;8.146;2024-02-21T06:53:33;101692.69;;;7.85;100.00
84190;BME280;74321;53.406;8.146;2024-02-21T06:58:37;101699.66;;;7.92;100.00
84190;BME280;74321;53.406;8.146;2024-02-21T07:03:39;101686.66;;;7.80;100.00
84190;BME280;74321;53.406;8.146;2024-02-21T07:08:41;101665.75;;;7.57;100.00
84190;BME280;74321;53.406;8.146;2024-02-21T07:13:43;101699.38;;;7.78;100.00
84190;BME280;74321;53.406;8.146;2024-02-21T07:18:45;101699.44;;;7.81;100.00
84190;BME280;74321;53.406;8.146;2024-02-21T07:23:47;101712.34;;;7.87;100.00
84190;BME280;74321;53.406;8.146;2024-02-21T07:28:49;101694.34;;;7.81;100.00
84190;BME280;74321;53.406;8.146;2024-02-21T07:33:54;101692.53;;;7.77;100.00
84190;BME280;74321;53.406;8.146;2024-02-21T07:38:56;101701.94;;;7.78;100.00
84190;BME280;74321;53.406;8.146;2024-02-21T07:43:58;101691.69;;;7.77;100.00
84190;BME280;74321;53.406;8.146;2024-02-21T07:49:01;101684.81;;;7.73;100.00
84190;BME280;74321;53.406;8.146;2024-02-21T07:54:07;101691.75;;;7.80;100.00
84190;BME280;74321;53.406;8.146;2024-02-21T07:59:13;101682.38;;;7.79;100.00
84190;BME280;74321;53.406;8.146;2024-02-21T08:04:15;101659.19;;;7.68;100.00
84190;BME280;74321;53.406;8.146;2024-02-21T08:09:17;101679.09;;;7.84;100.00
84190;BME280;74321;53.406;8.146;2024-02-21T08:14:19;101682.75;;;7.96;100.00
84190;BME280;74321;53.406;8.146;2024-02-21T08:19:24;101670.59;;;7.85;100.00
84190;BME280;74321;53.406;8.146;2024-02-21T08:24:27;101672.53;;;7.96;100.00
84190;BME280;74321;53.406;8.146;2024-02-21T08:29:29;101667.34;;;7.93;100.00
84190;BME280;74321;53.406;8.146;2024-02-21T08:34:30;101677.00;;;8.06;100.00
84190;BME280;74321;53.406;8.146;2024-02-21T08:39:36;101653.91;;;8.01;100.00
84190;BME280;74321;53.406;8.146;2024-02-21T08:44:39;101640.06;;;7.88;100.00
84190;BME280;74321;53.406;8.146;2024-02-21T08:49:44;101623.13;;;7.94;100.00
84190;BME280;74321;53.406;8.146;2024-02-21T08:54:46;101631.94;;;8.09;100.00
84190;BME280;74321;53.406;8.146;2024-02-21T08:59:48;101619.91;;;8.02;100.00
84190;BME280;74321;53.406;8.146;2024-02-21T09:04:50;101641.25;;;8.06;100.00
84190;BME280;74321;53.406;8.146;2024-02-21T09:09:55;101641.22;;;8.03;100.00
84190;BME280;74321;53.406;8.146;2024-02-21T09:14:57;101623.34;;;8.03;100.00
84190;BME280;74321;53.406;8.146;2024-02-21T09:19:58;101624.94;;;7.99;100.00
84190;BME280;74321;53.406;8.146;2024-02-21T09:25:05;101623.47;;;8.10;100.00
84190;BME280;74321;53.406;8.146;2024-02-21T09:30:07;101611.44;;;8.03;100.00
84190;BME280;74321;53.406;8.146;2024-02-21T09:35:09;101608.19;;;8.12;100.00
84190;BME280;74321;53.406;8.146;2024-02-21T09:40:15;101592.78;;;8.07;100.00
84190;BME280;74321;53.406;8.146;2024-02-21T09:45:20;101596.13;;;8.03;100.00
84190;BME280;74321;53.406;8.146;2024-02-21T09:50:26;101575.59;;;7.99;100.00
84190;BME280;74321;53.406;8.146;2024-02-21T09:55:31;101572.41;;;8.10;100.00
84190;BME280;74321;53.406;8.146;2024-02-21T10:00:36;101593.63;;;8.08;100.00
84190;BME280;74321;53.406;8.146;2024-02-21T10:05:47;101583.31;;;8.02;100.00
84190;BME280;74321;53.406;8.146;2024-02-21T10:10:49;101542.13;;;7.83;100.00
84190;BME280;74321;53.406;8.146;2024-02-21T10:16:05;101519.88;;;7.75;100.00
84190;BME280;74321;53.406;8.146;2024-02-21T10:21:08;101557.88;;;8.05;100.00
84190;BME280;74321;53.406;8.146;2024-02-21T10:26:10;101541.72;;;8.06;100.00
84190;BME280;74321;53.406;8.146;2024-02-21T10:31:26;101546.16;;;8.17;100.00
84190;BME280;74321;53.406;8.146;2024-02-21T10:36:32;101515.19;;;7.98;100.00
84190;BME280;74321;53.406;8.146;2024-02-21T10:41:33;101535.66;;;8.01;100.00
84190;BME280;74321;53.406;8.146;2024-02-21T10:46:38;101498.84;;;7.86;100.00
84190;BME280;74321;53.406;8.146;2024-02-21T10:51:43;101515.25;;;8.02;100.00
84190;BME280;74321;53.406;8.146;2024-02-21T10:56:49;101496.22;;;7.85;100.00
84190;BME280;74321;53.406;8.146;2024-02-21T11:01:52;101498.94;;;7.94;100.00
84190;BME280;74321;53.406;8.146;2024-02-21T11:07:00;101478.72;;;8.03;100.00
84190;BME280;74321;53.406;8.146;2024-02-21T11:12:04;101462.91;;;8.26;100.00
84190;BME280;74321;53.406;8.146;2024-02-21T11:17:17;101472.47;;;8.36;100.00
84190;BME280;74321;53.406;8.146;2024-02-21T11:22:20;101455.53;;;8.41;100.00
84190;BME280;74321;53.406;8.146;2024-02-21T11:27:24;101452.47;;;8.65;100.00
84190;BME280;74321;53.406;8.146;2024-02-21T11:32:26;101450.00;;;8.71;100.00
84190;BME280;74321;53.406;8.146;2024-02-21T11:37:32;101429.56;;;8.69;100.00
84190;BME280;74321;53.406;8.146;2024-02-21T11:42:50;101415.09;;;8.70;100.00
84190;BME280;74321;53.406;8.146;2024-02-21T11:47:52;101395.75;;;8.90;100.00
84190;BME280;74321;53.406;8.146;2024-02-21T11:52:54;101408.78;;;9.10;100.00
84190;BME280;74321;53.406;8.146;2024-02-21T11:57:57;101382.03;;;8.85;100.00
84190;BME280;74321;53.406;8.146;2024-02-21T12:02:59;101382.31;;;9.10;100.00
84190;BME280;74321;53.406;8.146;2024-02-21T12:08:04;101362.69;;;9.04;100.00
84190;BME280;74321;53.406;8.146;2024-02-21T12:13:10;101362.13;;;9.34;100.00
84190;BME280;74321;53.406;8.146;2024-02-21T12:18:12;101357.94;;;9.39;100.00
84190;BME280;74321;53.406;8.146;2024-02-21T12:23:14;101351.88;;;9.31;100.00
84190;BME280;74321;53.406;8.146;2024-02-21T12:28:17;101332.50;;;9.54;100.00
84190;BME280;74321;53.406;8.146;2024-02-21T12:33:25;101315.31;;;9.43;100.00
84190;BME280;74321;53.406;8.146;2024-02-21T12:38:35;101311.84;;;9.35;100.00
84190;BME280;74321;53.406;8.146;2024-02-21T12:43:42;101303.50;;;9.58;100.00
84190;BME280;74321;53.406;8.146;2024-02-21T12:49:04;101193.97;;;9.06;100.00
84190;BME280;74321;53.406;8.146;2024-02-21T12:54:21;101015.94;;;8.07;100.00
84190;BME280;74321;53.406;8.146;2024-02-21T12:59:41;101086.06;;;8.40;100.00
84190;BME280;74321;53.406;8.146;2024-02-21T13:04:43;101230.94;;;9.44;100.00
84190;BME280;74321;53.406;8.146;2024-02-21T13:09:45;101211.28;;;9.42;100.00
84190;BME280;74321;53.406;8.146;2024-02-21T13:14:47;101216.47;;;9.51;100.00
84190;BME280;74321;53.406;8.146;2024-02-21T13:19:49;101200.13;;;9.27;100.00
84190;BME280;74321;53.406;8.146;2024-02-21T13:24:51;101180.47;;;9.26;100.00
84190;BME280;74321;53.406;8.146;2024-02-21T13:29:59;101146.31;;;9.14;100.00
84190;BME280;74321;53.406;8.146;2024-02-21T13:35:04;101131.03;;;9.20;100.00
84190;BME280;74321;53.406;8.146;2024-02-21T13:40:07;101116.50;;;9.17;100.00
84190;BME280;74321;53.406;8.146;2024-02-21T13:45:14;101116.50;;;9.14;100.00
84190;BME280;74321;53.406;8.146;2024-02-21T13:50:23;101107.97;;;9.14;100.00
84190;BME280;74321;53.406;8.146;2024-02-21T13:55:29;101100.34;;;9.20;100.00
84190;BME280;74321;53.406;8.146;2024-02-21T14:00:37;101090.88;;;9.10;100.00
84190;BME280;74321;53.406;8.146;2024-02-21T14:05:39;101078.09;;;9.05;100.00
84190;BME280;74321;53.406;8.146;2024-02-21T14:10:47;101099.34;;;8.99;100.00
84190;BME280;74321;53.406;8.146;2024-02-21T14:15:52;101072.06;;;8.95;100.00
84190;BME280;74321;53.406;8.146;2024-02-21T14:20:57;101047.34;;;8.94;100.00
84190;BME280;74321;53.406;8.146;2024-02-21T14:26:02;101016.69;;;9.00;100.00
84190;BME280;74321;53.406;8.146;2024-02-21T14:31:05;100978.25;;;8.82;100.00
84190;BME280;74321;53.406;8.146;2024-02-21T14:36:10;100992.84;;;8.97;100.00
84190;BME280;74321;53.406;8.146;2024-02-21T14:41:14;101004.75;;;9.01;100.00
84190;BME280;74321;53.406;8.146;2024-02-21T14:46:18;100967.19;;;8.83;100.00
84190;BME280;74321;53.406;8.146;2024-02-21T14:51:20;100952.78;;;8.94;100.00
84190;BME280;74321;53.406;8.146;2024-02-21T14:56:32;100950.25;;;8.97;100.00
84190;BME280;74321;53.406;8.146;2024-02-21T15:01:41;100946.78;;;8.89;100.00
84190;BME280;74321;53.406;8.146;2024-02-21T15:06:43;100962.97;;;8.90;100.00
84190;BME280;74321;53.406;8.146;2024-02-21T15:11:47;100916.06;;;8.77;100.00
84190;BME280;74321;53.406;8.146;2024-02-21T15:16:49;100887.13;;;8.78;100.00
84190;BME280;74321;53.406;8.146;2024-02-21T15:21:56;100881.09;;;8.61;100.00
84190;BME280;74321;53.406;8.146;2024-02-21T15:27:00;100875.13;;;8.66;100.00
84190;BME280;74321;53.406;8.146;2024-02-21T15:32:02;100875.94;;;8.56;100.00
84190;BME280;74321;53.406;8.146;2024-02-21T15:37:05;100871.59;;;8.41;100.00
84190;BME280;74321;53.406;8.146;2024-02-21T15:42:07;100898.91;;;8.53;100.00
84190;BME280;74321;53.406;8.146;2024-02-21T15:47:09;100885.19;;;8.42;100.00
84190;BME280;74321;53.406;8.146;2024-02-21T15:52:12;100892.03;;;8.43;100.00
84190;BME280;74321;53.406;8.146;2024-02-21T15:57:23;100882.56;;;8.34;100.00
84190;BME280;74321;53.406;8.146;2024-02-21T16:02:25;100870.66;;;8.33;100.00
84190;BME280;74321;53.406;8.146;2024-02-21T16:07:28;100870.72;;;8.38;100.00
84190;BME280;74321;53.406;8.146;2024-02-21T16:12:30;100862.16;;;8.34;100.00
84190;BME280;74321;53.406;8.146;2024-02-21T16:17:35;100850.13;;;8.18;100.00
84190;BME280;74321;53.406;8.146;2024-02-21T16:22:37;100850.19;;;8.26;100.00
84190;BME280;74321;53.406;8.146;2024-02-21T16:27:39;100839.09;;;8.22;100.00
84190;BME280;74321;53.406;8.146;2024-02-21T16:32:43;100825.44;;;8.17;100.00
84190;BME280;74321;53.406;8.146;2024-02-21T16:37:48;100812.69;;;8.12;100.00
84190;BME280;74321;53.406;8.146;2024-02-21T16:42:50;100779.44;;;8.05;100.00
84190;BME280;74321;53.406;8.146;2024-02-21T16:47:52;100782.00;;;8.09;100.00
84190;BME280;74321;53.406;8.146;2024-02-21T16:52:57;100766.69;;;8.06;100.00
84190;BME280;74321;53.406;8.146;2024-02-21T16:58:05;100757.28;;;7.96;100.00
84190;BME280;74321;53.406;8.146;2024-02-21T17:03:08;100732.63;;;8.01;100.00
84190;BME280;74321;53.406;8.146;2024-02-21T17:08:12;100730.06;;;8.01;100.00
84190;BME280;74321;53.406;8.146;2024-02-21T17:13:14;100700.22;;;7.82;100.00
84190;BME280;74321;53.406;8.146;2024-02-21T17:18:16;100698.56;;;7.90;100.00
84190;BME280;74321;53.406;8.146;2024-02-21T17:23:18;100677.25;;;7.83;100.00
84190;BME280;74321;53.406;8.146;2024-02-21T17:28:20;100691.81;;;7.98;100.00
84190;BME280;74321;53.406;8.146;2024-02-21T17:33:22;100660.25;;;7.84;100.00
84190;BME280;74321;53.406;8.146;2024-02-21T17:38:27;100663.63;;;7.72;100.00
84190;BME280;74321;53.406;8.146;2024-02-21T17:43:31;100602.22;;;7.37;100.00
84190;BME280;74321;53.406;8.146;2024-02-21T17:48:34;100599.69;;;7.42;100.00
84190;BME280;74321;53.406;8.146;2024-02-21T17:53:37;100620.97;;;7.50;100.00
84190;BME280;74321;53.406;8.146;2024-02-21T17:58:40;100578.34;;;7.27;100.00
84190;BME280;74321;53.406;8.146;2024-02-21T18:03:42;100566.47;;;7.20;100.00
84190;BME280;74321;53.406;8.146;2024-02-21T18:08:45;100559.63;;;7.19;100.00
